AQQ10 IFIS: Internet Flight Information System
logo dgac
Viernes 12 de Abril del 2024
Buscar por aerodromo o helipuerto
Ingrese nombre de aeródromo, localidad o designador OACI:
METAR del 11-04-2024 a las 22:00 UTC
Para mayor información visite www.meteochile.gob.cl
METAR SCRD 112200Z 22005KT 160V260 CAVOK 15/09 Q1016
Viento: dirección 220 grados, velocidad 5 nudos
Viento con dirección variable entre 160 y 260 grados
Visibilidad: 10 km o más,
    sin nubes bajo los 5.000 pies o bajo del MSA (Mínimo de Seguridad del Aeródromo),
    sin cumulonimbus, y sin fenómenos de tiempo significativo en el aeródromo o alrededores
Temperatura: 15 °C
Rocío: 9 °C
Humedad_relativa: 67%
Presión: 1016 hPa
METAR del 11-04-2024 a las 21:00 UTC
Para mayor información visite www.meteochile.gob.cl
METAR SCRD 112100Z 35005KT 330V030 9999 BKN060 16/11 Q1016
Viento: dirección 350 grados, velocidad 5 nudos
Viento con dirección variable entre 330 y 030 grados
Visibilidad: 10 km o más
Nubes: Nublado a 6000 pies sobre el nivel del aeródromo
Temperatura: 16 °C
Rocío: 11 °C
Humedad_relativa: 72%
Presión: 1016 hPa
METAR del 11-04-2024 a las 20:00 UTC
Para mayor información visite www.meteochile.gob.cl
METAR SCRD 112000Z 30005KT 9999 FEW030 BKN100 16/09 Q1016
Viento: dirección 300 grados, velocidad 5 nudos
Visibilidad: 10 km o más
Nubes: Escasa nubosidad a 3000 pies sobre el nivel del aeródromo
Nubes: Nublado a 10000 pies sobre el nivel del aeródromo
Temperatura: 16 °C
Rocío: 9 °C
Humedad_relativa: 63%
Presión: 1016 hPa
METAR del 11-04-2024 a las 19:00 UTC
Para mayor información visite www.meteochile.gob.cl
METAR SCRD 111900Z 34006KT 300V360 CAVOK 16/10 Q1016
Viento: dirección 340 grados, velocidad 6 nudos
Viento con dirección variable entre 300 y 360 grados
Visibilidad: 10 km o más,
    sin nubes bajo los 5.000 pies o bajo del MSA (Mínimo de Seguridad del Aeródromo),
    sin cumulonimbus, y sin fenómenos de tiempo significativo en el aeródromo o alrededores
Temperatura: 16 °C
Rocío: 10 °C
Humedad_relativa: 68%
Presión: 1016 hPa
METAR del 11-04-2024 a las 18:00 UTC
Para mayor información visite www.meteochile.gob.cl
METAR SCRD 111800Z 35006KT 300V030 9999 FEW015 BKN200 17/10 Q1016
Viento: dirección 350 grados, velocidad 6 nudos
Viento con dirección variable entre 300 y 030 grados
Visibilidad: 10 km o más
Nubes: Escasa nubosidad a 1500 pies sobre el nivel del aeródromo
Nubes: Nublado a 20000 pies sobre el nivel del aeródromo
Temperatura: 17 °C
Rocío: 10 °C
Humedad_relativa: 63%
Presión: 1016 hPa
METAR del 11-04-2024 a las 17:00 UTC
Para mayor información visite www.meteochile.gob.cl
METAR SCRD 111700Z 35006KT 290V020 8000 NSC 15/09 Q1016
Viento: dirección 350 grados, velocidad 6 nudos
Viento con dirección variable entre 290 y 020 grados
Visibilidad: 8000 metros
Sin nubes bajo los 5000 pies o bajo del MSA (Mínimo de Seguridad del Aeródromo)
Temperatura: 15 °C
Rocío: 9 °C
Humedad_relativa: 67%
Presión: 1016 hPa
METAR del 11-04-2024 a las 16:00 UTC
Para mayor información visite www.meteochile.gob.cl
METAR SCRD 111600Z 33007KT 280V030 8000 NSC 17/09 Q1016
Viento: dirección 330 grados, velocidad 7 nudos
Viento con dirección variable entre 280 y 030 grados
Visibilidad: 8000 metros
Sin nubes bajo los 5000 pies o bajo del MSA (Mínimo de Seguridad del Aeródromo)
Temperatura: 17 °C
Rocío: 9 °C
Humedad_relativa: 59%
Presión: 1016 hPa
METAR del 11-04-2024 a las 15:00 UTC
Para mayor información visite www.meteochile.gob.cl
METAR SCRD 111500Z 17005KT 120V210 8000 NSC 14/08 Q1016
Viento: dirección 170 grados, velocidad 5 nudos
Viento con dirección variable entre 120 y 210 grados
Visibilidad: 8000 metros
Sin nubes bajo los 5000 pies o bajo del MSA (Mínimo de Seguridad del Aeródromo)
Temperatura: 14 °C
Rocío: 8 °C
Humedad_relativa: 67%
Presión: 1016 hPa
METAR del 11-04-2024 a las 14:00 UTC
Para mayor información visite www.meteochile.gob.cl
METAR SCRD 111400Z 19005KT 120V240 8000 NSC 12/08 Q1016
Viento: dirección 190 grados, velocidad 5 nudos
Viento con dirección variable entre 120 y 240 grados
Visibilidad: 8000 metros
Sin nubes bajo los 5000 pies o bajo del MSA (Mínimo de Seguridad del Aeródromo)
Temperatura: 12 °C
Rocío: 8 °C
Humedad_relativa: 77%
Presión: 1016 hPa
METAR del 11-04-2024 a las 13:00 UTC
Para mayor información visite www.meteochile.gob.cl
METAR SCRD 111300Z 15004KT 090V180 9999 FEW025 SCT150 10/08 Q1016
Viento: dirección 150 grados, velocidad 4 nudos
Viento con dirección variable entre 090 y 180 grados
Visibilidad: 10 km o más
Nubes: Escasa nubosidad a 2500 pies sobre el nivel del aeródromo
Nubes: Nubosidad parcial a 15000 pies sobre el nivel del aeródromo
Temperatura: 10 °C
Rocío: 8 °C
Humedad_relativa: 87%
Presión: 1016 hPa